Time;durP1;ratioP1;P1;durP2;ratioP2;P2;SDS_P1;SDS_P2;PMS_P1;PMS_P2;Temp;Humidity;BMP_temperature;BMP_pressure;BME280_temperature;BME280_humidity;BME280_pressure;Samples;Min_cycle;Max_cycle;Signal;HPM_P1;HPM_P2
2023/07/09 00:02:10;;;;;;;12.20;7.40;;;28.40;95.60;;;;;;5023193;28;20679;-23
2023/07/09 00:04:38;;;;;;;11.52;7.95;;;28.40;95.60;;;;;;5024774;28;20824;-23
2023/07/09 00:07:07;;;;;;;12.40;7.38;;;28.30;95.50;;;;;;5023110;28;20208;-23
2023/07/09 00:09:35;;;;;;;8.23;7.30;;;28.30;95.50;;;;;;5023288;28;20766;-23
2023/07/09 00:12:02;;;;;;;8.00;6.88;;;28.30;95.50;;;;;;5022488;28;20205;-23
2023/07/09 00:14:30;;;;;;;10.93;6.93;;;28.30;95.90;;;;;;5024213;28;20290;-23
2023/07/09 00:17:00;;;;;;;9.05;6.70;;;28.20;95.60;;;;;;5024016;28;20605;-23
2023/07/09 00:19:29;;;;;;;9.40;6.97;;;28.20;95.70;;;;;;5024049;28;20212;-23
2023/07/09 00:21:59;;;;;;;9.23;7.40;;;28.20;95.80;;;;;;5022581;28;20836;-23
2023/07/09 00:24:31;;;;;;;9.02;7.20;;;28.20;95.80;;;;;;5022931;28;20666;-23
2023/07/09 00:26:58;;;;;;;9.35;6.90;;;28.10;95.90;;;;;;5024645;28;20602;-23
2023/07/09 00:29:29;;;;;;;8.88;7.65;;;28.10;95.90;;;;;;5024486;28;20196;-23
2023/07/09 00:31:56;;;;;;;9.57;7.65;;;28.10;95.90;;;;;;5022568;28;20764;-23
2023/07/09 00:34:25;;;;;;;12.63;7.85;;;28.00;95.90;;;;;;5024481;28;20660;-23
2023/07/09 00:36:57;;;;;;;8.68;7.10;;;28.00;96.00;;;;;;5024571;28;20208;-23
2023/07/09 00:39:26;;;;;;;8.73;7.10;;;27.90;96.00;;;;;;5024888;28;20247;-24
2023/07/09 00:41:56;;;;;;;9.65;7.10;;;27.90;96.10;;;;;;5022887;28;20212;-24
2023/07/09 00:44:29;;;;;;;11.38;7.50;;;27.80;96.10;;;;;;5022547;28;20212;-23
2023/07/09 00:47:02;;;;;;;10.10;7.40;;;27.80;96.20;;;;;;5023907;28;20208;-24
2023/07/09 00:49:36;;;;;;;7.97;7.18;;;27.80;96.30;;;;;;5022298;28;20682;-23
2023/07/09 00:52:24;;;;;;;12.30;7.50;;;27.70;96.30;;;;;;5027962;28;20200;-24
2023/07/09 00:54:52;;;;;;;10.85;7.88;;;27.70;96.50;;;;;;5027955;28;20229;-24
2023/07/09 00:57:26;;;;;;;9.65;6.90;;;27.60;96.20;;;;;;5027810;28;20653;-24
2023/07/09 01:00:00;;;;;;;8.95;6.68;;;27.60;96.30;;;;;;5026304;28;20291;-24
2023/07/09 01:02:33;;;;;;;9.18;6.90;;;27.60;96.30;;;;;;5026432;28;20246;-24
2023/07/09 01:05:06;;;;;;;10.45;6.75;;;27.60;96.40;;;;;;5026532;28;20628;-26
2023/07/09 01:07:35;;;;;;;8.48;7.57;;;27.50;96.30;;;;;;5027708;28;20893;-26
2023/07/09 01:10:03;;;;;;;7.97;7.18;;;27.50;96.40;;;;;;5025973;28;20209;-24
2023/07/09 01:12:30;;;;;;;9.32;7.30;;;27.50;96.40;;;;;;5025758;28;20695;-24
2023/07/09 01:14:59;;;;;;;8.63;6.95;;;27.40;96.40;;;;;;5009721;28;20220;-33
2023/07/09 01:17:28;;;;;;;9.77;7.50;;;27.40;96.50;;;;;;5027082;28;20699;-33
2023/07/09 01:19:56;;;;;;;8.90;6.68;;;27.40;96.50;;;;;;5027285;28;20211;-33
2023/07/09 01:22:27;;;;;;;9.52;6.82;;;27.30;96.40;;;;;;5027439;28;20228;-33
2023/07/09 01:25:02;;;;;;;9.90;6.60;;;27.30;96.40;;;;;;5026094;28;20204;-33
2023/07/09 01:27:41;;;;;;;11.52;6.47;;;27.30;96.50;;;;;;5027325;28;20458;-33
2023/07/09 01:30:22;;;;;;;7.78;6.60;;;27.30;96.70;;;;;;5026019;28;20237;-33
2023/07/09 01:33:00;;;;;;;8.00;6.60;;;27.30;96.60;;;;;;5027438;28;20687;-34
2023/07/09 01:35:32;;;;;;;7.63;6.72;;;27.20;96.60;;;;;;5027551;28;20228;-34
2023/07/09 01:38:00;;;;;;;8.60;6.85;;;27.20;96.50;;;;;;5025718;28;20678;-34
2023/07/09 01:40:29;;;;;;;8.10;7.00;;;27.20;96.50;;;;;;5027231;28;21072;-33
2023/07/09 01:43:06;;;;;;;11.30;7.15;;;27.10;96.40;;;;;;5025916;28;20679;-34
2023/07/09 01:45:36;;;;;;;12.82;7.18;;;27.10;96.60;;;;;;5027133;28;20268;-34
2023/07/09 01:48:04;;;;;;;9.70;6.72;;;27.10;96.50;;;;;;5026664;28;20225;-24
2023/07/09 01:50:34;;;;;;;8.52;6.95;;;27.10;96.50;;;;;;5025519;28;20254;-23
2023/07/09 01:53:08;;;;;;;9.05;6.63;;;27.10;96.60;;;;;;5025276;28;20283;-32
2023/07/09 01:55:35;;;;;;;11.88;7.30;;;27.00;96.60;;;;;;5027246;28;20232;-23
2023/07/09 01:58:06;;;;;;;7.43;6.47;;;27.00;96.60;;;;;;5026871;28;20264;-24
2023/07/09 02:00:34;;;;;;;10.00;6.95;;;27.00;96.60;;;;;;5026400;28;20458;-23
2023/07/09 02:03:04;;;;;;;9.32;7.35;;;27.00;96.60;;;;;;5026752;28;20706;-24
2023/07/09 02:05:32;;;;;;;9.85;7.85;;;26.90;96.70;;;;;;5026712;28;20205;-24
2023/07/09 02:08:05;;;;;;;9.80;7.38;;;26.90;96.60;;;;;;5026583;28;20679;-23
2023/07/09 02:10:36;;;;;;;9.63;7.15;;;26.90;96.70;;;;;;5024973;28;20295;-24
2023/07/09 02:13:03;;;;;;;9.38;7.07;;;26.80;96.70;;;;;;5024741;28;20258;-24
2023/07/09 02:15:30;;;;;;;8.60;6.97;;;26.80;96.70;;;;;;5024510;28;20271;-24
2023/07/09 02:18:01;;;;;;;8.93;6.90;;;26.80;96.80;;;;;;5026609;28;20194;-23
2023/07/09 02:20:33;;;;;;;8.75;6.65;;;26.80;96.80;;;;;;5026745;28;20208;-24
2023/07/09 02:23:01;;;;;;;7.28;6.40;;;26.70;96.80;;;;;;5025142;28;20255;-24
2023/07/09 02:25:31;;;;;;;8.75;6.80;;;26.70;96.80;;;;;;5026467;28;20295;-24
2023/07/09 02:28:01;;;;;;;8.32;6.68;;;26.70;96.80;;;;;;5026152;28;20306;-23
2023/07/09 02:30:33;;;;;;;8.20;6.97;;;26.70;96.90;;;;;;5025159;28;20212;-24
2023/07/09 02:33:01;;;;;;;10.02;6.65;;;26.60;96.90;;;;;;5026367;28;20209;-24
2023/07/09 02:35:28;;;;;;;10.88;7.07;;;26.60;96.80;;;;;;5025938;28;20224;-24
2023/07/09 02:37:58;;;;;;;7.93;6.40;;;26.60;96.80;;;;;;5024348;28;20663;-24
2023/07/09 02:40:25;;;;;;;10.65;6.07;;;26.50;96.80;;;;;;5026000;28;20205;-24
2023/07/09 02:42:52;;;;;;;8.00;6.15;;;26.50;96.80;;;;;;5024824;28;20381;-33
2023/07/09 02:45:19;;;;;;;8.23;6.40;;;26.50;96.70;;;;;;5025891;28;20204;-33
2023/07/09 02:47:47;;;;;;;8.68;6.10;;;26.50;96.80;;;;;;5024394;28;20291;-33
2023/07/09 02:50:14;;;;;;;9.30;6.15;;;26.50;96.70;;;;;;5024287;28;20211;-33
2023/07/09 02:52:44;;;;;;;8.88;5.65;;;26.40;96.60;;;;;;5026276;28;20359;-33
2023/07/09 02:55:11;;;;;;;7.60;5.53;;;26.40;96.60;;;;;;5025682;28;20275;-24
2023/07/09 02:57:41;;;;;;;6.60;5.43;;;26.40;96.60;;;;;;5024099;28;20201;-24
2023/07/09 03:00:11;;;;;;;9.13;5.75;;;26.40;96.60;;;;;;5007835;28;20208;-24
2023/07/09 03:02:43;;;;;;;7.38;5.78;;;26.40;96.70;;;;;;5023756;28;20201;-24
2023/07/09 03:05:13;;;;;;;7.13;5.93;;;26.30;96.60;;;;;;5008019;28;20590;-23
2023/07/09 03:07:43;;;;;;;8.50;5.90;;;26.30;96.60;;;;;;5007535;28;20591;-23
2023/07/09 03:10:12;;;;;;;8.88;5.68;;;26.30;96.60;;;;;;5025217;28;20282;-24
2023/07/09 03:12:42;;;;;;;7.40;5.60;;;26.30;96.50;;;;;;5024348;28;20204;-24
2023/07/09 03:15:10;;;;;;;8.30;5.53;;;26.30;96.50;;;;;;5023679;28;20217;-24
2023/07/09 03:17:37;;;;;;;9.82;6.28;;;26.30;96.60;;;;;;5007937;28;20546;-33
2023/07/09 03:20:05;;;;;;;7.25;5.55;;;26.20;96.60;;;;;;5023679;28;20313;-33
2023/07/09 03:22:32;;;;;;;8.10;5.78;;;26.20;96.60;;;;;;5025508;28;20255;-33
2023/07/09 03:24:59;;;;;;;9.13;5.45;;;26.20;96.60;;;;;;5023617;28;20227;-33
2023/07/09 03:27:27;;;;;;;7.18;5.43;;;26.20;96.60;;;;;;5025102;28;20212;-33
2023/07/09 03:29:56;;;;;;;9.73;5.63;;;26.20;96.60;;;;;;5025821;28;20215;-34
2023/07/09 03:32:28;;;;;;;9.90;5.70;;;26.20;96.60;;;;;;5024829;28;20235;-33
2023/07/09 03:34:57;;;;;;;8.95;5.32;;;26.20;96.70;;;;;;5023576;28;20232;-33
2023/07/09 03:37:26;;;;;;;8.02;5.10;;;26.10;96.60;;;;;;5024479;28;20306;-33
2023/07/09 03:39:54;;;;;;;8.38;5.72;;;26.10;96.70;;;;;;5023328;28;20224;-23
2023/07/09 03:42:23;;;;;;;9.02;5.70;;;26.10;96.70;;;;;;5023443;28;20258;-23
2023/07/09 03:44:50;;;;;;;7.38;5.55;;;26.10;96.70;;;;;;5024347;28;20227;-33
2023/07/09 03:47:18;;;;;;;8.20;5.72;;;26.10;96.70;;;;;;5024750;28;20235;-33
2023/07/09 03:49:47;;;;;;;5.72;5.03;;;26.10;96.70;;;;;;5024954;28;20215;-33
2023/07/09 03:52:19;;;;;;;10.43;5.95;;;26.00;96.70;;;;;;5022931;28;20229;-33
2023/07/09 03:54:48;;;;;;;8.40;5.72;;;26.10;96.80;;;;;;5023046;28;20225;-33
2023/07/09 03:57:15;;;;;;;9.27;5.53;;;26.00;96.80;;;;;;5024440;28;20254;-33
2023/07/09 03:59:43;;;;;;;7.10;5.55;;;26.00;96.80;;;;;;5022292;28;20196;-33
2023/07/09 04:02:10;;;;;;;8.75;5.85;;;26.00;96.80;;;;;;5024117;28;20381;-33
2023/07/09 04:04:37;;;;;;;6.45;5.82;;;26.00;96.80;;;;;;5022599;28;20239;-33
2023/07/09 04:07:05;;;;;;;9.27;6.07;;;26.00;96.90;;;;;;5024458;28;20259;-33
2023/07/09 04:09:32;;;;;;;9.45;5.80;;;25.90;96.80;;;;;;5024486;28;20197;-33
2023/07/09 04:12:01;;;;;;;8.38;5.63;;;25.90;96.90;;;;;;5023114;28;20251;-33
2023/07/09 04:14:31;;;;;;;9.98;5.38;;;25.90;96.90;;;;;;5024818;28;20985;-24
2023/07/09 04:16:58;;;;;;;10.55;6.30;;;25.90;96.90;;;;;;5024508;28;20238;-24
2023/07/09 04:19:28;;;;;;;10.70;6.22;;;25.90;96.90;;;;;;4990311;28;20201;-24
2023/07/09 04:21:57;;;;;;;9.57;5.97;;;25.90;97.00;;;;;;5022729;28;20231;-24
2023/07/09 04:24:24;;;;;;;10.45;6.10;;;25.90;97.00;;;;;;5023651;28;20225;-24
2023/07/09 04:26:56;;;;;;;7.93;6.43;;;25.90;97.00;;;;;;5022670;28;20200;-24
2023/07/09 04:29:26;;;;;;;8.77;5.85;;;25.90;97.10;;;;;;5022849;28;20296;-23
2023/07/09 04:31:53;;;;;;;7.10;5.47;;;25.90;97.10;;;;;;5022597;28;20251;-24
2023/07/09 04:34:21;;;;;;;7.32;5.72;;;25.90;97.10;;;;;;5022323;28;20820;-24
2023/07/09 04:36:52;;;;;;;10.15;6.53;;;25.90;97.10;;;;;;5023690;28;20428;-24
2023/07/09 04:39:20;;;;;;;8.90;5.78;;;25.90;97.20;;;;;;5022366;28;20327;-24
2023/07/09 04:41:52;;;;;;;8.68;5.55;;;25.90;97.10;;;;;;5022505;28;20533;-24
2023/07/09 04:44:20;;;;;;;9.95;5.60;;;25.90;97.10;;;;;;5006276;28;20689;-24
2023/07/09 04:46:54;;;;;;;6.93;5.47;;;25.90;97.20;;;;;;5023728;28;20297;-24
2023/07/09 04:49:21;;;;;;;7.65;5.78;;;25.90;97.20;;;;;;5024048;28;20191;-24
2023/07/09 04:51:48;;;;;;;7.28;5.50;;;25.90;97.20;;;;;;5005900;28;20196;-24
2023/07/09 04:54:18;;;;;;;7.82;5.55;;;25.90;97.20;;;;;;5022471;28;20294;-24
2023/07/09 04:56:48;;;;;;;7.95;5.70;;;25.90;97.20;;;;;;5022608;28;20227;-24
2023/07/09 04:59:15;;;;;;;10.73;5.38;;;25.90;97.20;;;;;;5022648;28;20201;-23
2023/07/09 05:01:45;;;;;;;9.00;6.07;;;25.90;97.20;;;;;;5022322;28;20205;-33
2023/07/09 05:04:12;;;;;;;7.30;4.93;;;25.90;97.20;;;;;;5021833;28;20201;-33
2023/07/09 05:06:40;;;;;;;9.13;5.72;;;25.90;97.20;;;;;;5024086;28;20636;-33
2023/07/09 05:09:08;;;;;;;6.15;5.15;;;25.90;97.20;;;;;;5022183;28;20201;-33
2023/07/09 05:11:36;;;;;;;7.82;5.72;;;25.90;97.20;;;;;;5022376;28;20220;-33
2023/07/09 05:14:04;;;;;;;6.93;5.00;;;26.00;97.30;;;;;;5022937;28;20259;-33
2023/07/09 05:16:35;;;;;;;6.88;5.32;;;26.00;97.30;;;;;;5022155;28;20228;-33
2023/07/09 05:19:10;;;;;;;6.60;5.45;;;26.00;97.30;;;;;;5022084;28;20738;-33
2023/07/09 05:21:37;;;;;;;7.50;5.78;;;26.00;97.40;;;;;;5023671;28;20283;-33
2023/07/09 05:24:05;;;;;;;10.27;5.35;;;26.10;97.40;;;;;;5005603;28;20209;-33
2023/07/09 05:26:34;;;;;;;8.43;5.60;;;26.10;97.40;;;;;;5023356;28;20201;-33
2023/07/09 05:29:04;;;;;;;6.78;5.60;;;26.20;97.40;;;;;;5021505;28;20259;-33
2023/07/09 05:31:36;;;;;;;5.40;4.68;;;26.20;97.40;;;;;;5021923;28;20825;-33
2023/07/09 05:34:05;;;;;;;6.45;4.53;;;26.30;97.50;;;;;;5022217;28;20630;-33
2023/07/09 05:36:32;;;;;;;6.45;5.32;;;26.30;97.50;;;;;;5024268;28;20718;-33
2023/07/09 05:38:59;;;;;;;9.65;5.38;;;26.40;97.60;;;;;;5026879;28;20715;-33
2023/07/09 05:41:27;;;;;;;5.90;5.15;;;26.40;97.60;;;;;;5025147;28;20276;-33
2023/07/09 05:43:57;;;;;;;7.85;5.13;;;26.50;97.60;;;;;;5025453;28;20606;-33
2023/07/09 05:46:26;;;;;;;9.85;5.63;;;26.50;97.60;;;;;;5024930;28;20208;-33
2023/07/09 05:48:56;;;;;;;9.95;5.28;;;26.60;97.60;;;;;;5026051;28;20220;-33
2023/07/09 05:51:24;;;;;;;7.90;5.32;;;26.60;97.60;;;;;;5024977;28;20683;-33
2023/07/09 05:53:51;;;;;;;6.35;5.00;;;26.70;97.70;;;;;;5026677;28;20266;-33
2023/07/09 05:56:19;;;;;;;8.32;5.18;;;26.70;97.70;;;;;;5026349;28;20278;-33
2023/07/09 05:58:52;;;;;;;8.15;5.40;;;26.70;97.70;;;;;;5025059;28;20235;-33
2023/07/09 06:01:20;;;;;;;9.68;5.47;;;26.80;97.80;;;;;;5026854;28;20189;-33
2023/07/09 06:03:50;;;;;;;7.30;5.47;;;26.80;97.70;;;;;;5027148;28;20652;-33
2023/07/09 06:06:17;;;;;;;7.05;5.30;;;26.90;97.80;;;;;;5026816;28;20254;-33
2023/07/09 06:08:50;;;;;;;9.23;5.35;;;27.00;97.80;;;;;;5026684;28;20292;-33
2023/07/09 06:11:17;;;;;;;8.27;5.43;;;27.00;97.80;;;;;;5026724;28;20193;-33
2023/07/09 06:13:49;;;;;;;8.05;5.30;;;27.00;97.80;;;;;;5026592;28;20201;-33
2023/07/09 06:16:17;;;;;;;7.05;5.05;;;27.10;97.90;;;;;;5026063;28;20227;-33
2023/07/09 06:18:45;;;;;;;8.32;5.13;;;27.20;97.90;;;;;;5026012;28;20229;-33
2023/07/09 06:21:12;;;;;;;7.15;5.18;;;27.20;97.80;;;;;;5024979;28;20566;-33
2023/07/09 06:23:44;;;;;;;8.10;5.00;;;27.20;97.80;;;;;;5026461;28;20208;-34
2023/07/09 06:26:17;;;;;;;7.05;5.30;;;27.30;97.80;;;;;;5009391;28;20284;-34
2023/07/09 06:28:46;;;;;;;8.23;5.13;;;27.30;97.80;;;;;;5008779;28;20283;-33
2023/07/09 06:31:13;;;;;;;6.97;5.20;;;27.40;97.80;;;;;;5024954;28;20201;-24
2023/07/09 06:33:43;;;;;;;7.20;5.07;;;27.40;97.80;;;;;;5026709;28;20347;-24
2023/07/09 06:36:12;;;;;;;5.95;4.78;;;27.40;97.80;;;;;;5026133;28;20232;-24
2023/07/09 06:38:43;;;;;;;7.65;4.90;;;27.50;97.80;;;;;;5025970;28;20260;-24
2023/07/09 06:41:11;;;;;;;6.90;4.95;;;27.50;97.80;;;;;;5024473;28;20209;-24
2023/07/09 06:43:43;;;;;;;5.60;4.80;;;27.50;97.80;;;;;;5024339;28;20690;-24
2023/07/09 06:46:13;;;;;;;5.95;4.32;;;27.60;97.80;;;;;;5025358;28;20756;-24
2023/07/09 06:48:43;;;;;;;9.18;5.18;;;27.60;97.90;;;;;;5025722;28;20749;-24
2023/07/09 06:51:10;;;;;;;5.93;4.68;;;27.70;97.90;;;;;;5026005;28;20205;-24
2023/07/09 06:53:39;;;;;;;6.85;4.78;;;27.80;97.90;;;;;;5024863;28;20942;-24
2023/07/09 06:56:13;;;;;;;6.90;4.70;;;27.80;97.90;;;;;;5025721;28;20248;-24
2023/07/09 06:58:45;;;;;;;7.05;4.63;;;27.80;97.90;;;;;;5024176;28;20197;-24
2023/07/09 07:01:13;;;;;;;5.75;4.80;;;27.90;97.90;;;;;;5025647;28;20454;-24
2023/07/09 07:03:42;;;;;;;9.90;5.10;;;27.90;97.90;;;;;;5025337;28;20263;-33
2023/07/09 07:06:09;;;;;;;5.88;4.57;;;28.00;97.90;;;;;;5024042;28;20207;-32
2023/07/09 07:08:36;;;;;;;8.50;5.22;;;28.00;97.90;;;;;;5023947;28;20631;-33
2023/07/09 07:11:05;;;;;;;6.97;4.88;;;28.10;98.00;;;;;;5023902;28;20213;-32
2023/07/09 07:13:36;;;;;;;6.80;5.13;;;28.10;98.00;;;;;;5024452;28;20729;-33
2023/07/09 07:16:10;;;;;;;7.18;4.78;;;28.10;98.00;;;;;;5025307;28;20225;-33
2023/07/09 07:18:41;;;;;;;7.88;4.95;;;28.20;98.00;;;;;;5025171;28;20197;-32
2023/07/09 07:21:10;;;;;;;7.40;5.10;;;28.20;98.10;;;;;;5023643;28;20208;-33
2023/07/09 07:23:37;;;;;;;8.05;4.75;;;28.30;98.10;;;;;;5025602;28;20259;-33
2023/07/09 07:26:06;;;;;;;7.50;4.88;;;28.30;98.10;;;;;;5025095;28;20292;-32
2023/07/09 07:28:36;;;;;;;7.85;4.60;;;28.40;98.20;;;;;;5025284;28;20663;-33
2023/07/09 07:31:07;;;;;;;6.22;4.90;;;28.40;98.20;;;;;;5025300;28;20699;-33
2023/07/09 07:33:35;;;;;;;6.05;4.43;;;28.50;98.20;;;;;;5023413;28;20697;-33
2023/07/09 07:36:09;;;;;;;7.55;5.03;;;28.60;98.30;;;;;;5023303;28;20224;-32
2023/07/09 07:38:41;;;;;;;6.63;4.65;;;28.60;98.30;;;;;;5022925;28;20256;-33
2023/07/09 07:41:13;;;;;;;5.82;4.28;;;28.70;98.30;;;;;;5023206;28;20499;-32
2023/07/09 07:43:45;;;;;;;6.95;4.57;;;28.80;98.30;;;;;;5023616;28;20284;-33
2023/07/09 07:46:12;;;;;;;7.53;4.35;;;28.80;98.30;;;;;;5025068;28;20621;-33
2023/07/09 07:48:43;;;;;;;6.60;4.43;;;28.80;98.30;;;;;;5024641;28;20626;-33
2023/07/09 07:51:10;;;;;;;7.00;4.32;;;28.90;98.30;;;;;;5024636;28;20204;-33
2023/07/09 07:53:48;;;;;;;5.68;4.40;;;28.90;98.20;;;;;;5024700;28;20242;-33
2023/07/09 07:56:16;;;;;;;9.30;4.68;;;29.00;98.30;;;;;;5022870;28;20235;-33
2023/07/09 07:58:43;;;;;;;8.15;4.35;;;29.10;98.20;;;;;;5024545;28;20201;-33
2023/07/09 08:01:13;;;;;;;5.72;4.25;;;29.10;98.20;;;;;;5023265;28;20255;-33
2023/07/09 08:03:50;;;;;;;5.88;3.88;;;29.10;98.10;;;;;;5024482;28;20652;-33
2023/07/09 08:06:21;;;;;;;4.68;4.03;;;29.20;98.10;;;;;;5024452;28;20205;-33
2023/07/09 08:08:49;;;;;;;4.70;3.67;;;29.30;98.10;;;;;;5024360;28;20299;-33
2023/07/09 08:11:16;;;;;;;5.60;4.40;;;29.30;98.10;;;;;;5022969;28;20687;-33
2023/07/09 08:13:48;;;;;;;6.35;4.60;;;29.30;98.00;;;;;;5022730;28;20630;-33
2023/07/09 08:16:18;;;;;;;5.07;4.18;;;29.30;98.00;;;;;;5023141;28;20713;-33
2023/07/09 08:18:47;;;;;;;6.00;3.88;;;29.30;97.90;;;;;;5022572;28;20832;-33
2023/07/09 08:21:15;;;;;;;6.80;4.60;;;29.40;98.00;;;;;;5024842;28;20571;-33
2023/07/09 08:23:42;;;;;;;7.22;4.40;;;29.40;98.00;;;;;;5022610;28;20225;-33
2023/07/09 08:26:11;;;;;;;7.03;4.57;;;29.40;97.90;;;;;;5023967;28;20212;-33
2023/07/09 08:28:41;;;;;;;6.10;4.28;;;29.50;97.90;;;;;;5021915;28;20622;-33
2023/07/09 08:31:08;;;;;;;4.85;4.28;;;29.50;97.90;;;;;;5023690;28;20207;-33
2023/07/09 08:33:41;;;;;;;6.93;4.65;;;29.50;97.90;;;;;;5024286;28;20196;-33
2023/07/09 08:36:16;;;;;;;6.25;4.40;;;29.60;97.90;;;;;;5022462;28;20698;-33
2023/07/09 08:38:47;;;;;;;4.50;4.00;;;29.60;97.90;;;;;;5022109;28;20239;-33
2023/07/09 08:41:23;;;;;;;7.03;3.90;;;29.60;97.80;;;;;;5022800;28;20287;-33
2023/07/09 08:44:09;;;;;;;8.20;4.22;;;29.60;97.80;;;;;;5023744;28;20269;-33
2023/07/09 08:46:42;;;;;;;4.72;4.22;;;29.60;97.80;;;;;;5023851;28;20246;-32
2023/07/09 08:49:20;;;;;;;7.38;4.30;;;29.60;97.80;;;;;;5022697;28;20286;-33
2023/07/09 08:51:49;;;;;;;6.55;4.68;;;29.70;98.10;;;;;;5022455;28;20227;-33
2023/07/09 08:54:36;;;;;;;7.15;4.30;;;29.60;97.70;;;;;;5022837;28;20209;-33
2023/07/09 08:57:36;;;;;;;5.63;5.05;;;29.70;97.70;;;;;;5023528;28;20236;-33
2023/07/09 09:00:19;;;;;;;9.50;5.68;;;29.70;97.60;;;;;;5018832;28;20614;-33
2023/07/09 09:03:23;;;;;;;7.95;5.10;;;29.70;97.70;;;;;;5022605;28;20200;-33
2023/07/09 09:05:51;;;;;;;8.85;5.65;;;29.70;97.70;;;;;;5021982;28;20228;-33
2023/07/09 09:08:27;;;;;;;9.35;5.60;;;29.70;97.70;;;;;;5024164;28;20664;-33
2023/07/09 09:11:14;;;;;;;7.53;5.30;;;29.80;97.70;;;;;;5023787;28;20204;-33
2023/07/09 09:13:44;;;;;;;7.07;5.68;;;29.80;97.70;;;;;;5026361;28;20270;-33
2023/07/09 09:16:38;;;;;;;6.55;5.32;;;29.80;97.70;;;;;;5025659;28;20803;-33
2023/07/09 09:19:37;;;;;;;7.13;5.60;;;29.90;97.80;;;;;;5027788;28;20201;-33
2023/07/09 09:22:13;;;;;;;6.88;5.07;;;29.90;97.80;;;;;;5027967;28;20211;-33
2023/07/09 09:24:58;;;;;;;7.95;5.50;;;30.00;97.80;;;;;;5026031;28;20205;-33
2023/07/09 09:27:28;;;;;;;7.05;5.82;;;30.00;97.80;;;;;;5027207;28;20634;-33
2023/07/09 09:29:58;;;;;;;12.05;5.75;;;30.00;97.80;;;;;;5025682;28;20197;-32
2023/07/09 09:32:33;;;;;;;8.25;6.30;;;30.10;97.80;;;;;;5025567;28;20212;-32
2023/07/09 09:35:12;;;;;;;6.65;5.70;;;30.10;97.90;;;;;;5027304;28;20223;-32
2023/07/09 09:37:56;;;;;;;9.13;7.00;;;30.20;97.90;;;;;;5025779;28;20260;-32
2023/07/09 09:40:26;;;;;;;6.85;5.78;;;30.30;97.90;;;;;;5025899;28;20232;-32
2023/07/09 09:43:00;;;;;;;6.82;5.93;;;30.30;97.90;;;;;;5027058;28;20259;-32
2023/07/09 09:45:37;;;;;;;12.20;8.77;;;30.40;98.00;;;;;;5026832;28;20568;-32
2023/07/09 09:48:26;;;;;;;13.95;10.55;;;30.40;98.10;;;;;;5026896;28;20255;-32
2023/07/09 09:50:58;;;;;;;13.38;9.38;;;30.50;98.10;;;;;;5027105;28;20315;-32
2023/07/09 09:53:31;;;;;;;14.02;11.60;;;30.50;98.10;;;;;;5025587;28;20201;-32
2023/07/09 09:56:06;;;;;;;13.77;10.05;;;30.60;98.40;;;;;;5027018;28;20553;-32
2023/07/09 09:58:39;;;;;;;14.15;10.90;;;30.60;98.10;;;;;;5026815;28;20548;-32
2023/07/09 10:01:18;;;;;;;16.17;10.48;;;30.60;98.10;;;;;;5025407;28;20625;-32
2023/07/09 10:03:54;;;;;;;17.38;10.90;;;30.60;98.10;;;;;;5025270;28;20215;-32
2023/07/09 10:06:25;;;;;;;19.00;13.38;;;30.70;98.10;;;;;;5026487;28;20262;-32
2023/07/09 10:08:58;;;;;;;19.60;14.77;;;30.60;97.90;;;;;;5026998;28;20326;-35
2023/07/09 10:11:39;;;;;;;16.02;13.10;;;30.60;97.80;;;;;;5024942;28;20288;-32
2023/07/09 10:14:32;;;;;;;17.23;12.32;;;30.60;97.70;;;;;;5025337;28;20204;-32
2023/07/09 10:17:29;;;;;;;13.95;11.77;;;30.60;97.70;;;;;;5026401;28;20326;-32
2023/07/09 10:20:02;;;;;;;14.63;12.63;;;30.60;97.70;;;;;;5014767;28;20617;-32
2023/07/09 10:23:02;;;;;;;20.08;15.70;;;30.60;97.70;;;;;;5026413;28;20205;-32
2023/07/09 10:25:40;;;;;;;19.40;14.43;;;30.60;97.60;;;;;;5025431;28;20205;-32
2023/07/09 10:28:24;;;;;;;19.80;15.70;;;30.60;97.20;;;;;;5026974;28;20276;-23
2023/07/09 10:31:20;;;;;;;24.02;16.40;;;30.60;97.40;;;;;;5024537;28;20925;-23
2023/07/09 10:33:52;;;;;;;24.20;17.38;;;30.60;97.10;;;;;;5026032;28;20200;-23
2023/07/09 10:36:58;;;;;;;18.25;14.60;;;30.60;97.20;;;;;;5024557;28;20383;-23
2023/07/09 10:39:37;;;;;;;20.98;15.23;;;30.60;97.30;;;;;;5025729;28;20197;-23
2023/07/09 10:42:18;;;;;;;17.90;15.48;;;30.60;97.30;;;;;;5025638;28;20205;-23
2023/07/09 10:44:53;;;;;;;22.08;17.70;;;30.60;97.20;;;;;;5025794;28;20203;-23
2023/07/09 10:47:37;;;;;;;20.13;16.80;;;30.60;97.30;;;;;;5024145;28;20231;-23
2023/07/09 10:50:14;;;;;;;24.48;19.88;;;30.70;97.30;;;;;;5024286;28;20240;-23
2023/07/09 10:52:49;;;;;;;25.00;19.13;;;30.70;97.30;;;;;;5026197;28;20198;-23
2023/07/09 10:55:41;;;;;;;25.58;22.13;;;30.70;97.30;;;;;;5025481;28;20212;-23
2023/07/09 10:58:19;;;;;;;23.48;19.30;;;30.70;97.20;;;;;;5025591;28;20209;-23
2023/07/09 11:00:50;;;;;;;26.83;20.63;;;30.80;97.40;;;;;;5025901;28;20193;-23
2023/07/09 11:04:00;;;;;;;22.38;18.50;;;30.80;97.40;;;;;;5023965;28;20677;-23
2023/07/09 11:06:41;;;;;;;22.05;16.45;;;30.90;97.40;;;;;;5022662;28;20287;-23
2023/07/09 11:09:31;;;;;;;20.52;15.77;;;30.90;97.30;;;;;;5006060;28;20201;-23
2023/07/09 11:12:12;;;;;;;20.02;15.30;;;31.00;97.30;;;;;;5019052;28;20300;-23
2023/07/09 11:15:01;;;;;;;18.55;15.10;;;31.00;97.30;;;;;;5025590;28;20564;-23
2023/07/09 11:17:34;;;;;;;17.15;15.27;;;31.00;97.30;;;;;;5025450;28;20221;-23
2023/07/09 11:20:18;;;;;;;17.33;13.88;;;31.00;97.30;;;;;;5024110;28;20205;-23
2023/07/09 11:23:04;;;;;;;15.00;10.88;;;31.00;97.20;;;;;;5025305;28;20225;-23
2023/07/09 11:25:45;;;;;;;13.52;9.93;;;31.00;97.20;;;;;;5023639;28;20282;-23
2023/07/09 11:28:15;;;;;;;10.88;8.90;;;30.90;97.10;;;;;;5025064;28;20228;-23
2023/07/09 11:30:55;;;;;;;10.57;8.57;;;30.90;97.10;;;;;;5023564;28;20678;-23
2023/07/09 11:33:29;;;;;;;11.20;7.20;;;30.90;97.10;;;;;;5024685;28;20504;-23
2023/07/09 11:36:24;;;;;;;8.77;7.53;;;30.90;97.00;;;;;;5007309;28;20215;-32
2023/07/09 11:38:52;;;;;;;8.75;6.57;;;30.80;96.90;;;;;;5006944;28;20271;-32
2023/07/09 11:41:46;;;;;;;9.07;6.55;;;30.70;97.10;;;;;;5024531;28;20228;-32
2023/07/09 11:44:16;;;;;;;10.27;5.95;;;30.70;96.90;;;;;;5022775;28;20255;-32
2023/07/09 11:47:01;;;;;;;7.93;6.57;;;30.70;97.00;;;;;;5024318;28;20219;-32
2023/07/09 11:49:46;;;;;;;8.80;5.82;;;30.60;96.90;;;;;;5025093;28;20200;-32
2023/07/09 11:52:17;;;;;;;8.35;4.90;;;30.60;96.90;;;;;;5024795;28;20219;-33
2023/07/09 11:54:44;;;;;;;7.88;4.70;;;30.50;96.80;;;;;;5024611;28;20204;-32
2023/07/09 11:57:15;;;;;;;6.82;4.55;;;30.40;96.70;;;;;;5022850;28;20231;-33
2023/07/09 11:59:43;;;;;;;7.20;4.63;;;30.30;96.70;;;;;;5022936;28;20293;-33
2023/07/09 12:02:21;;;;;;;5.22;4.57;;;30.30;96.60;;;;;;5022664;28;20213;-34
2023/07/09 12:04:53;;;;;;;7.55;4.60;;;30.20;96.60;;;;;;5023095;28;20676;-39
2023/07/09 12:07:25;;;;;;;7.15;4.85;;;30.10;96.50;;;;;;5023244;28;20209;-33
2023/07/09 12:09:56;;;;;;;7.05;4.55;;;30.00;96.50;;;;;;5022674;28;20208;-37
2023/07/09 12:12:25;;;;;;;7.13;4.35;;;30.00;96.40;;;;;;5024054;28;20681;-34
2023/07/09 12:14:55;;;;;;;7.63;4.50;;;29.90;96.40;;;;;;5023069;28;20258;-33
2023/07/09 12:17:30;;;;;;;7.65;4.47;;;29.90;96.40;;;;;;5022656;28;20224;-32
2023/07/09 12:20:00;;;;;;;5.45;4.40;;;29.80;96.30;;;;;;5022934;28;20200;-32
2023/07/09 12:22:27;;;;;;;5.72;3.92;;;29.70;96.30;;;;;;5024192;28;20713;-32
2023/07/09 12:24:57;;;;;;;5.93;4.20;;;29.70;96.40;;;;;;5022727;28;20204;-33
2023/07/09 12:27:37;;;;;;;5.53;3.90;;;29.60;96.30;;;;;;5024085;28;20216;-32
2023/07/09 12:30:12;;;;;;;5.82;4.50;;;29.60;96.40;;;;;;5023547;28;20204;-33
2023/07/09 12:32:53;;;;;;;7.35;4.80;;;29.60;96.50;;;;;;5024019;28;20690;-33
2023/07/09 12:35:30;;;;;;;5.80;4.00;;;29.50;96.50;;;;;;5023975;28;20271;-33
2023/07/09 12:38:01;;;;;;;6.72;4.13;;;29.40;96.50;;;;;;5023484;28;20236;-33
2023/07/09 12:40:30;;;;;;;10.02;4.43;;;29.40;96.60;;;;;;5022324;28;20204;-24
2023/07/09 12:43:01;;;;;;;6.07;4.90;;;29.40;96.70;;;;;;5023603;28;20196;-24
2023/07/09 12:45:34;;;;;;;26.38;8.93;;;29.30;96.70;;;;;;5026347;28;20212;-24
2023/07/09 12:48:04;;;;;;;14.65;7.32;;;29.30;97.50;;;;;;5029023;28;20212;-24
2023/07/09 12:50:35;;;;;;;9.52;5.72;;;29.30;98.20;;;;;;5030336;28;20201;-24
2023/07/09 12:53:15;;;;;;;10.40;5.78;;;29.20;98.80;;;;;;5029152;28;20214;-24
2023/07/09 12:55:45;;;;;;;12.88;6.25;;;29.20;99.20;;;;;;5028232;28;20201;-24
2023/07/09 12:58:20;;;;;;;9.77;5.55;;;29.00;99.10;;;;;;5030637;28;20648;-24
2023/07/09 13:00:52;;;;;;;6.15;5.07;;;28.90;99.50;;;;;;5029279;28;20566;-24
2023/07/09 13:03:31;;;;;;;8.05;5.10;;;28.80;99.20;;;;;;5028905;28;20197;-24
2023/07/09 13:06:23;;;;;;;8.50;5.30;;;28.70;99.70;;;;;;5030026;28;20207;-24
2023/07/09 13:08:59;;;;;;;8.65;5.47;;;28.60;99.40;;;;;;5029015;28;20879;-24
2023/07/09 13:11:35;;;;;;;8.95;5.57;;;28.40;99.60;;;;;;5028812;28;20201;-24